sensor_id;sensor_type;location;lat;lon;timestamp;pressure;altitude;pressure_sealevel;temperature;humidity
29485;BME280;16440;59.494;17.978;2022-07-29T00:02:11;101958.19;;;8.91;100.00
29485;BME280;16440;59.494;17.978;2022-07-29T00:04:40;101955.50;;;8.87;100.00
29485;BME280;16440;59.494;17.978;2022-07-29T00:07:11;101961.72;;;8.84;100.00
29485;BME280;16440;59.494;17.978;2022-07-29T00:09:40;101961.72;;;8.81;100.00
29485;BME280;16440;59.494;17.978;2022-07-29T00:12:09;101961.72;;;8.79;100.00
29485;BME280;16440;59.494;17.978;2022-07-29T00:14:42;101958.13;;;8.79;100.00
29485;BME280;16440;59.494;17.978;2022-07-29T00:17:18;101959.03;;;8.78;100.00
29485;BME280;16440;59.494;17.978;2022-07-29T00:19:47;101952.75;;;8.73;100.00
29485;BME280;16440;59.494;17.978;2022-07-29T00:22:16;101946.47;;;8.68;100.00
29485;BME280;16440;59.494;17.978;2022-07-29T00:24:44;101952.72;;;8.64;100.00
29485;BME280;16440;59.494;17.978;2022-07-29T00:27:13;101950.03;;;8.59;100.00
29485;BME280;16440;59.494;17.978;2022-07-29T00:29:46;101956.31;;;8.63;100.00
29485;BME280;16440;59.494;17.978;2022-07-29T00:32:15;101958.09;;;8.62;100.00
29485;BME280;16440;59.494;17.978;2022-07-29T00:34:43;101948.25;;;8.60;100.00
29485;BME280;16440;59.494;17.978;2022-07-29T00:37:28;101947.34;;;8.58;100.00
29485;BME280;16440;59.494;17.978;2022-07-29T00:39:57;101950.00;;;8.50;100.00
29485;BME280;16440;59.494;17.978;2022-07-29T00:42:28;101945.50;;;8.45;100.00
29485;BME280;16440;59.494;17.978;2022-07-29T00:45:00;101945.47;;;8.39;100.00
29485;BME280;16440;59.494;17.978;2022-07-29T00:47:28;101944.56;;;8.35;100.00
29485;BME280;16440;59.494;17.978;2022-07-29T00:49:57;101948.13;;;8.31;100.00
29485;BME280;16440;59.494;17.978;2022-07-29T00:52:26;101941.78;;;8.27;100.00
29485;BME280;16440;59.494;17.978;2022-07-29T00:54:55;101945.34;;;8.23;100.00
29485;BME280;16440;59.494;17.978;2022-07-29T00:57:30;101946.25;;;8.21;100.00
29485;BME280;16440;59.494;17.978;2022-07-29T01:02:28;101947.97;;;8.11;100.00
29485;BME280;16440;59.494;17.978;2022-07-29T01:04:57;101940.78;;;8.09;100.00
29485;BME280;16440;59.494;17.978;2022-07-29T01:07:26;101954.19;;;8.07;100.00
29485;BME280;16440;59.494;17.978;2022-07-29T01:09:56;101947.03;;;8.06;100.00
29485;BME280;16440;59.494;17.978;2022-07-29T01:12:26;101954.16;;;8.04;100.00
29485;BME280;16440;59.494;17.978;2022-07-29T01:14:55;101948.78;;;8.01;100.00
29485;BME280;16440;59.494;17.978;2022-07-29T01:17:28;101949.66;;;7.99;100.00
29485;BME280;16440;59.494;17.978;2022-07-29T01:22:42;101946.06;;;7.92;100.00
29485;BME280;16440;59.494;17.978;2022-07-29T01:31:34;101941.50;;;7.82;100.00
29485;BME280;16440;59.494;17.978;2022-07-29T01:34:04;101937.00;;;7.79;100.00
29485;BME280;16440;59.494;17.978;2022-07-29T01:36:40;101945.03;;;7.75;100.00
29485;BME280;16440;59.494;17.978;2022-07-29T01:39:18;101941.44;;;7.73;100.00
29485;BME280;16440;59.494;17.978;2022-07-29T01:41:53;101942.31;;;7.69;100.00
29485;BME280;16440;59.494;17.978;2022-07-29T01:44:33;101944.06;;;7.67;100.00
29485;BME280;16440;59.494;17.978;2022-07-29T01:47:08;101941.38;;;7.64;100.00
29485;BME280;16440;59.494;17.978;2022-07-29T01:49:45;101944.94;;;7.63;100.00
29485;BME280;16440;59.494;17.978;2022-07-29T01:52:20;101943.13;;;7.62;100.00
29485;BME280;16440;59.494;17.978;2022-07-29T01:54:53;101909.03;;;7.39;100.00
29485;BME280;16440;59.494;17.978;2022-07-29T01:57:29;101950.25;;;7.57;100.00
29485;BME280;16440;59.494;17.978;2022-07-29T02:00:00;101953.78;;;7.53;100.00
29485;BME280;16440;59.494;17.978;2022-07-29T02:02:31;101951.97;;;7.48;100.00
29485;BME280;16440;59.494;17.978;2022-07-29T02:05:01;101958.19;;;7.44;100.00
29485;BME280;16440;59.494;17.978;2022-07-29T02:07:31;101948.31;;;7.42;100.00
29485;BME280;16440;59.494;17.978;2022-07-29T02:10:03;101950.09;;;7.41;100.00
29485;BME280;16440;59.494;17.978;2022-07-29T02:12:33;101950.12;;;7.40;100.00
29485;BME280;16440;59.494;17.978;2022-07-29T02:15:03;101950.09;;;7.38;100.00
29485;BME280;16440;59.494;17.978;2022-07-29T02:17:35;101959.00;;;7.37;100.00
29485;BME280;16440;59.494;17.978;2022-07-29T02:20:09;101955.44;;;7.35;100.00
29485;BME280;16440;59.494;17.978;2022-07-29T02:22:41;101954.50;;;7.33;100.00
29485;BME280;16440;59.494;17.978;2022-07-29T02:25:13;101958.97;;;7.33;100.00
29485;BME280;16440;59.494;17.978;2022-07-29T02:27:43;101950.00;;;7.29;100.00
29485;BME280;16440;59.494;17.978;2022-07-29T02:30:13;101953.56;;;7.28;100.00
29485;BME280;16440;59.494;17.978;2022-07-29T02:32:42;101951.75;;;7.27;100.00
29485;BME280;16440;59.494;17.978;2022-07-29T02:35:15;101950.84;;;7.24;100.00
29485;BME280;16440;59.494;17.978;2022-07-29T02:37:46;101955.31;;;7.23;100.00
29485;BME280;16440;59.494;17.978;2022-07-29T02:40:28;101958.00;;;7.25;100.00
29485;BME280;16440;59.494;17.978;2022-07-29T02:42:57;101960.72;;;7.26;100.00
29485;BME280;16440;59.494;17.978;2022-07-29T02:45:27;101955.34;;;7.28;100.00
29485;BME280;16440;59.494;17.978;2022-07-29T02:47:56;101958.91;;;7.28;100.00
29485;BME280;16440;59.494;17.978;2022-07-29T02:50:31;101951.81;;;7.30;100.00
29485;BME280;16440;59.494;17.978;2022-07-29T02:53:07;101957.16;;;7.30;100.00
29485;BME280;16440;59.494;17.978;2022-07-29T02:55:43;101966.09;;;7.32;100.00
29485;BME280;16440;59.494;17.978;2022-07-29T02:58:18;101959.84;;;7.32;100.00
29485;BME280;16440;59.494;17.978;2022-07-29T03:00:53;101966.09;;;7.32;100.00
29485;BME280;16440;59.494;17.978;2022-07-29T03:03:25;101966.09;;;7.32;100.00
29485;BME280;16440;59.494;17.978;2022-07-29T03:05:56;101967.03;;;7.36;100.00
29485;BME280;16440;59.494;17.978;2022-07-29T03:08:25;101975.06;;;7.37;100.00
29485;BME280;16440;59.494;17.978;2022-07-29T03:10:56;101976.88;;;7.38;100.00
29485;BME280;16440;59.494;17.978;2022-07-29T03:13:26;101973.34;;;7.42;100.00
29485;BME280;16440;59.494;17.978;2022-07-29T03:15:56;101968.00;;;7.44;100.00
29485;BME280;16440;59.494;17.978;2022-07-29T03:18:25;101975.16;;;7.46;100.00
29485;BME280;16440;59.494;17.978;2022-07-29T03:20:54;101977.84;;;7.48;100.00
29485;BME280;16440;59.494;17.978;2022-07-29T03:23:26;101977.00;;;7.51;100.00
29485;BME280;16440;59.494;17.978;2022-07-29T03:25:56;101979.69;;;7.52;100.00
29485;BME280;16440;59.494;17.978;2022-07-29T03:28:24;101987.72;;;7.54;100.00
29485;BME280;16440;59.494;17.978;2022-07-29T03:30:54;101986.84;;;7.56;100.00
29485;BME280;16440;59.494;17.978;2022-07-29T03:33:22;101991.38;;;7.62;100.00
29485;BME280;16440;59.494;17.978;2022-07-29T03:35:50;101997.66;;;7.65;100.00
29485;BME280;16440;59.494;17.978;2022-07-29T03:38:41;101995.03;;;7.71;100.00
29485;BME280;16440;59.494;17.978;2022-07-29T03:41:13;101995.06;;;7.76;100.00
29485;BME280;16440;59.494;17.978;2022-07-29T03:43:43;101991.50;;;7.80;100.00
29485;BME280;16440;59.494;17.978;2022-07-29T03:46:14;101996.91;;;7.83;100.00
29485;BME280;16440;59.494;17.978;2022-07-29T03:48:48;101994.25;;;7.86;100.00
29485;BME280;16440;59.494;17.978;2022-07-29T03:51:21;101988.94;;;7.90;100.00
29485;BME280;16440;59.494;17.978;2022-07-29T03:53:49;101991.69;;;7.98;100.00
29485;BME280;16440;59.494;17.978;2022-07-29T03:56:21;101993.56;;;8.11;100.00
29485;BME280;16440;59.494;17.978;2022-07-29T03:58:51;101997.31;;;8.34;100.00
29485;BME280;16440;59.494;17.978;2022-07-29T04:01:21;101988.44;;;8.45;100.00
29485;BME280;16440;59.494;17.978;2022-07-29T04:03:50;101992.87;;;8.47;100.00
29485;BME280;16440;59.494;17.978;2022-07-29T04:06:19;101990.22;;;8.49;100.00
29485;BME280;16440;59.494;17.978;2022-07-29T04:08:47;101990.25;;;8.50;100.00
29485;BME280;16440;59.494;17.978;2022-07-29T04:11:15;101987.59;;;8.55;100.00
29485;BME280;16440;59.494;17.978;2022-07-29T04:13:45;101994.78;;;8.63;100.00
29485;BME280;16440;59.494;17.978;2022-07-29T04:16:13;101997.50;;;8.74;100.00
29485;BME280;16440;59.494;17.978;2022-07-29T04:18:42;101997.53;;;8.86;100.00
29485;BME280;16440;59.494;17.978;2022-07-29T04:21:10;101998.50;;;8.97;100.00
29485;BME280;16440;59.494;17.978;2022-07-29T04:23:39;102003.00;;;9.10;100.00
29485;BME280;16440;59.494;17.978;2022-07-29T04:26:07;101999.44;;;9.23;100.00
29485;BME280;16440;59.494;17.978;2022-07-29T04:28:37;101992.31;;;9.41;100.00
29485;BME280;16440;59.494;17.978;2022-07-29T04:31:08;102002.16;;;9.60;100.00
29485;BME280;16440;59.494;17.978;2022-07-29T04:33:36;102000.41;;;9.86;100.00
29485;BME280;16440;59.494;17.978;2022-07-29T04:36:05;101994.06;;;10.39;100.00
29485;BME280;16440;59.494;17.978;2022-07-29T04:38:33;101992.13;;;10.80;100.00
29485;BME280;16440;59.494;17.978;2022-07-29T04:43:28;101988.91;;;11.65;100.00
29485;BME280;16440;59.494;17.978;2022-07-29T04:45:56;101989.72;;;11.82;100.00
29485;BME280;16440;59.494;17.978;2022-07-29T04:48:26;101988.69;;;11.96;100.00
29485;BME280;16440;59.494;17.978;2022-07-29T04:50:55;101986.78;;;12.05;100.00
29485;BME280;16440;59.494;17.978;2022-07-29T04:53:23;101985.66;;;12.29;100.00
29485;BME280;16440;59.494;17.978;2022-07-29T04:55:52;101987.00;;;12.68;100.00
29485;BME280;16440;59.494;17.978;2022-07-29T04:58:20;101992.91;;;12.99;100.00
29485;BME280;16440;59.494;17.978;2022-07-29T05:00:50;101983.56;;;13.26;100.00
29485;BME280;16440;59.494;17.978;2022-07-29T05:03:18;101988.03;;;13.28;100.00
29485;BME280;16440;59.494;17.978;2022-07-29T05:05:48;101990.75;;;13.27;100.00
29485;BME280;16440;59.494;17.978;2022-07-29T05:08:16;101998.84;;;13.28;100.00
29485;BME280;16440;59.494;17.978;2022-07-29T05:10:46;101995.22;;;13.29;100.00
29485;BME280;16440;59.494;17.978;2022-07-29T05:13:14;101997.09;;;13.24;100.00
29485;BME280;16440;59.494;17.978;2022-07-29T05:15:43;102001.72;;;13.16;100.00
29485;BME280;16440;59.494;17.978;2022-07-29T05:18:11;102004.44;;;13.13;100.00
29485;BME280;16440;59.494;17.978;2022-07-29T05:20:39;102000.84;;;13.12;100.00
29485;BME280;16440;59.494;17.978;2022-07-29T05:23:09;102002.66;;;13.12;100.00
29485;BME280;16440;59.494;17.978;2022-07-29T05:25:39;102008.06;;;13.12;100.00
29485;BME280;16440;59.494;17.978;2022-07-29T05:28:09;101996.28;;;13.18;100.00
29485;BME280;16440;59.494;17.978;2022-07-29T05:30:38;101992.53;;;13.28;100.00
29485;BME280;16440;59.494;17.978;2022-07-29T05:33:06;102000.44;;;13.41;100.00
29485;BME280;16440;59.494;17.978;2022-07-29T05:35:34;102004.66;;;13.61;100.00
29485;BME280;16440;59.494;17.978;2022-07-29T05:38:03;102001.62;;;13.82;100.00
29485;BME280;16440;59.494;17.978;2022-07-29T05:40:33;101998.63;;;13.97;100.00
29485;BME280;16440;59.494;17.978;2022-07-29T05:43:02;101999.22;;;14.14;100.00
29485;BME280;16440;59.494;17.978;2022-07-29T05:45:31;102002.47;;;14.36;100.00
29485;BME280;16440;59.494;17.978;2022-07-29T05:47:59;101999.19;;;14.65;100.00
29485;BME280;16440;59.494;17.978;2022-07-29T05:50:27;102002.87;;;15.05;100.00
29485;BME280;16440;59.494;17.978;2022-07-29T05:52:58;101999.91;;;15.56;100.00
29485;BME280;16440;59.494;17.978;2022-07-29T05:55:27;101995.13;;;16.02;100.00
29485;BME280;16440;59.494;17.978;2022-07-29T05:57:57;102002.47;;;16.33;100.00
29485;BME280;16440;59.494;17.978;2022-07-29T06:00:25;102001.75;;;16.58;100.00
29485;BME280;16440;59.494;17.978;2022-07-29T06:02:54;102006.37;;;16.87;100.00
29485;BME280;16440;59.494;17.978;2022-07-29T06:05:25;102011.09;;;17.12;100.00
29485;BME280;16440;59.494;17.978;2022-07-29T06:07:55;102007.72;;;17.33;100.00
29485;BME280;16440;59.494;17.978;2022-07-29T06:10:23;102004.53;;;17.48;100.00
29485;BME280;16440;59.494;17.978;2022-07-29T06:12:52;102006.56;;;17.69;100.00
29485;BME280;16440;59.494;17.978;2022-07-29T06:15:22;102000.03;;;17.75;100.00
29485;BME280;16440;59.494;17.978;2022-07-29T06:17:51;102000.94;;;17.75;100.00
29485;BME280;16440;59.494;17.978;2022-07-29T06:20:21;102002.72;;;17.76;100.00
29485;BME280;16440;59.494;17.978;2022-07-29T06:22:49;102004.59;;;17.74;100.00
29485;BME280;16440;59.494;17.978;2022-07-29T06:25:17;102017.25;;;17.75;100.00
29485;BME280;16440;59.494;17.978;2022-07-29T06:27:45;102007.84;;;17.85;100.00
29485;BME280;16440;59.494;17.978;2022-07-29T06:30:14;102010.06;;;18.01;100.00
29485;BME280;16440;59.494;17.978;2022-07-29T06:32:43;102003.66;;;18.02;95.70
29485;BME280;16440;59.494;17.978;2022-07-29T06:35:12;102006.19;;;18.08;90.65
29485;BME280;16440;59.494;17.978;2022-07-29T06:37:40;102019.59;;;18.14;89.03
29485;BME280;16440;59.494;17.978;2022-07-29T06:40:09;102021.16;;;18.21;75.13
29485;BME280;16440;59.494;17.978;2022-07-29T06:42:55;102018.38;;;18.22;71.33
29485;BME280;16440;59.494;17.978;2022-07-29T06:45:24;102019.16;;;18.26;75.37
29485;BME280;16440;59.494;17.978;2022-07-29T06:47:53;102021.00;;;18.25;79.35
29485;BME280;16440;59.494;17.978;2022-07-29T06:50:21;102021.88;;;18.26;94.00
29485;BME280;16440;59.494;17.978;2022-07-29T06:52:50;102031.84;;;18.27;82.53
29485;BME280;16440;59.494;17.978;2022-07-29T06:55:18;102031.97;;;18.24;82.76
29485;BME280;16440;59.494;17.978;2022-07-29T06:57:47;102030.06;;;18.26;79.70
29485;BME280;16440;59.494;17.978;2022-07-29T07:00:15;102032.47;;;18.35;77.59
29485;BME280;16440;59.494;17.978;2022-07-29T07:02:46;102030.37;;;18.43;69.41
29485;BME280;16440;59.494;17.978;2022-07-29T07:05:16;102037.41;;;18.49;64.94
29485;BME280;16440;59.494;17.978;2022-07-29T07:07:44;102037.41;;;18.49;67.14
29485;BME280;16440;59.494;17.978;2022-07-29T07:10:13;102039.16;;;18.51;68.35
29485;BME280;16440;59.494;17.978;2022-07-29T07:12:41;102040.94;;;18.52;61.28
29485;BME280;16440;59.494;17.978;2022-07-29T07:15:10;102035.50;;;18.52;64.39
29485;BME280;16440;59.494;17.978;2022-07-29T07:17:38;102038.09;;;18.57;64.36
29485;BME280;16440;59.494;17.978;2022-07-29T07:20:07;102034.34;;;18.59;66.25
29485;BME280;16440;59.494;17.978;2022-07-29T07:22:37;102040.50;;;18.66;66.69
29485;BME280;16440;59.494;17.978;2022-07-29T07:25:06;102033.81;;;18.74;64.70
29485;BME280;16440;59.494;17.978;2022-07-29T07:27:35;102038.91;;;18.84;63.09
29485;BME280;16440;59.494;17.978;2022-07-29T07:30:03;102035.03;;;18.91;58.27
29485;BME280;16440;59.494;17.978;2022-07-29T07:32:32;102034.16;;;19.13;61.00
29485;BME280;16440;59.494;17.978;2022-07-29T07:35:01;102036.13;;;19.10;60.66
29485;BME280;16440;59.494;17.978;2022-07-29T07:37:29;102030.03;;;19.02;61.68
29485;BME280;16440;59.494;17.978;2022-07-29T07:39:58;102025.88;;;18.92;58.81
29485;BME280;16440;59.494;17.978;2022-07-29T07:42:26;102023.31;;;18.87;64.01
29485;BME280;16440;59.494;17.978;2022-07-29T07:44:55;102022.41;;;18.87;65.11
29485;BME280;16440;59.494;17.978;2022-07-29T07:47:23;102019.78;;;18.85;63.66
29485;BME280;16440;59.494;17.978;2022-07-29T07:49:52;102015.22;;;18.86;65.79
29485;BME280;16440;59.494;17.978;2022-07-29T07:52:21;102022.03;;;18.72;61.51
29485;BME280;16440;59.494;17.978;2022-07-29T07:54:51;102020.22;;;18.73;60.53
29485;BME280;16440;59.494;17.978;2022-07-29T07:57:22;102020.22;;;18.73;63.59
29485;BME280;16440;59.494;17.978;2022-07-29T07:59:50;102019.31;;;18.72;66.96
29485;BME280;16440;59.494;17.978;2022-07-29T08:02:18;102013.69;;;18.77;60.56
29485;BME280;16440;59.494;17.978;2022-07-29T08:04:46;102024.00;;;18.94;61.05
29485;BME280;16440;59.494;17.978;2022-07-29T08:07:15;102023.63;;;19.03;60.77
29485;BME280;16440;59.494;17.978;2022-07-29T08:09:43;102012.25;;;19.15;60.13
29485;BME280;16440;59.494;17.978;2022-07-29T08:12:13;102018.41;;;19.20;56.23
29485;BME280;16440;59.494;17.978;2022-07-29T08:14:41;102013.28;;;19.34;56.56
29485;BME280;16440;59.494;17.978;2022-07-29T08:17:09;102021.62;;;19.54;55.93
29485;BME280;16440;59.494;17.978;2022-07-29T08:19:38;102017.56;;;19.86;59.14
29485;BME280;16440;59.494;17.978;2022-07-29T08:22:07;102022.78;;;20.14;56.43
29485;BME280;16440;59.494;17.978;2022-07-29T08:24:38;102023.25;;;20.45;50.91
29485;BME280;16440;59.494;17.978;2022-07-29T08:27:20;102020.53;;;20.66;51.21
29485;BME280;16440;59.494;17.978;2022-07-29T08:29:49;102024.47;;;20.79;50.54
29485;BME280;16440;59.494;17.978;2022-07-29T08:32:22;102022.00;;;20.93;48.66
29485;BME280;16440;59.494;17.978;2022-07-29T08:34:50;102022.84;;;20.95;49.92
29485;BME280;16440;59.494;17.978;2022-07-29T08:37:19;102024.59;;;20.96;47.87
29485;BME280;16440;59.494;17.978;2022-07-29T08:39:48;102021.19;;;20.91;48.17
29485;BME280;16440;59.494;17.978;2022-07-29T08:42:17;102030.50;;;20.87;49.59
29485;BME280;16440;59.494;17.978;2022-07-29T08:44:46;102030.78;;;20.81;49.01
29485;BME280;16440;59.494;17.978;2022-07-29T08:47:15;102027.97;;;20.82;51.67
29485;BME280;16440;59.494;17.978;2022-07-29T08:49:44;102028.12;;;20.79;52.66
29485;BME280;16440;59.494;17.978;2022-07-29T08:52:16;102027.06;;;20.82;50.22
29485;BME280;16440;59.494;17.978;2022-07-29T08:54:44;102024.84;;;21.10;50.89
29485;BME280;16440;59.494;17.978;2022-07-29T08:57:13;102022.75;;;21.35;51.38
29485;BME280;16440;59.494;17.978;2022-07-29T08:59:45;102022.53;;;21.59;50.20
29485;BME280;16440;59.494;17.978;2022-07-29T09:02:15;102026.00;;;21.81;49.84
29485;BME280;16440;59.494;17.978;2022-07-29T09:04:50;102009.50;;;22.18;46.65
29485;BME280;16440;59.494;17.978;2022-07-29T09:07:19;102020.31;;;22.56;46.56
29485;BME280;16440;59.494;17.978;2022-07-29T09:09:48;102020.97;;;22.78;nan
29485;BME280;16440;59.494;17.978;2022-07-29T09:12:17;102013.22;;;22.86;nan
29485;BME280;16440;59.494;17.978;2022-07-29T09:14:50;102015.56;;;22.94;44.22
29485;BME280;16440;59.494;17.978;2022-07-29T09:17:20;102020.41;;;23.22;45.72
29485;BME280;16440;59.494;17.978;2022-07-29T09:20:14;102010.69;;;23.32;41.31
29485;BME280;16440;59.494;17.978;2022-07-29T09:22:42;102015.94;;;23.03;41.50
29485;BME280;16440;59.494;17.978;2022-07-29T09:25:16;102010.72;;;23.15;43.31
29485;BME280;16440;59.494;17.978;2022-07-29T09:28:06;102013.09;;;23.05;42.14
29485;BME280;16440;59.494;17.978;2022-07-29T09:30:50;102018.69;;;22.86;43.17
29485;BME280;16440;59.494;17.978;2022-07-29T09:33:20;102010.50;;;23.02;44.11
29485;BME280;16440;59.494;17.978;2022-07-29T09:35:59;102002.66;;;23.11;42.88
29485;BME280;16440;59.494;17.978;2022-07-29T09:38:28;102001.69;;;23.12;41.11
29485;BME280;16440;59.494;17.978;2022-07-29T09:41:00;101998.00;;;22.96;43.25
29485;BME280;16440;59.494;17.978;2022-07-29T09:43:29;101991.34;;;23.18;45.20
29485;BME280;16440;59.494;17.978;2022-07-29T09:46:15;101994.59;;;23.24;43.83
29485;BME280;16440;59.494;17.978;2022-07-29T09:48:43;102007.84;;;23.00;42.09
29485;BME280;16440;59.494;17.978;2022-07-29T09:51:18;101998.72;;;23.00;45.92
29485;BME280;16440;59.494;17.978;2022-07-29T09:53:46;101992.37;;;22.65;42.11
29485;BME280;16440;59.494;17.978;2022-07-29T09:56:14;102000.16;;;22.22;43.83
29485;BME280;16440;59.494;17.978;2022-07-29T09:58:42;102002.53;;;22.11;43.98
29485;BME280;16440;59.494;17.978;2022-07-29T10:01:11;101999.91;;;21.91;48.07
29485;BME280;16440;59.494;17.978;2022-07-29T10:03:52;102010.38;;;21.64;46.59
29485;BME280;16440;59.494;17.978;2022-07-29T10:06:23;102008.78;;;21.42;47.98
29485;BME280;16440;59.494;17.978;2022-07-29T10:08:52;102002.97;;;21.29;47.06
29485;BME280;16440;59.494;17.978;2022-07-29T10:11:20;102006.94;;;21.61;48.22
29485;BME280;16440;59.494;17.978;2022-07-29T10:13:49;101995.16;;;22.13;44.58
29485;BME280;16440;59.494;17.978;2022-07-29T10:16:18;101991.81;;;22.58;43.42
29485;BME280;16440;59.494;17.978;2022-07-29T10:18:46;101991.22;;;23.03;41.88
29485;BME280;16440;59.494;17.978;2022-07-29T10:21:16;101989.03;;;23.26;42.62
29485;BME280;16440;59.494;17.978;2022-07-29T10:23:47;101997.38;;;23.40;42.49
29485;BME280;16440;59.494;17.978;2022-07-29T10:26:16;101987.25;;;23.25;42.07
29485;BME280;16440;59.494;17.978;2022-07-29T10:28:45;101991.22;;;22.71;42.05
29485;BME280;16440;59.494;17.978;2022-07-29T10:31:26;101998.59;;;22.34;43.92
29485;BME280;16440;59.494;17.978;2022-07-29T10:34:04;101994.31;;;21.94;46.39
29485;BME280;16440;59.494;17.978;2022-07-29T10:36:49;101992.22;;;21.99;46.79
29485;BME280;16440;59.494;17.978;2022-07-29T10:39:30;101990.44;;;21.98;46.00
29485;BME280;16440;59.494;17.978;2022-07-29T10:42:06;101987.78;;;21.97;45.89
29485;BME280;16440;59.494;17.978;2022-07-29T10:44:40;101989.41;;;22.35;45.77
29485;BME280;16440;59.494;17.978;2022-07-29T10:47:20;101982.94;;;22.53;44.53
29485;BME280;16440;59.494;17.978;2022-07-29T10:50:00;101985.28;;;22.78;42.30
29485;BME280;16440;59.494;17.978;2022-07-29T10:52:54;101978.56;;;23.17;41.64
29485;BME280;16440;59.494;17.978;2022-07-29T10:55:34;101974.38;;;23.58;41.90
29485;BME280;16440;59.494;17.978;2022-07-29T10:58:15;101975.44;;;23.56;40.52
29485;BME280;16440;59.494;17.978;2022-07-29T11:00:44;101981.56;;;23.45;39.78
29485;BME280;16440;59.494;17.978;2022-07-29T11:03:46;101976.53;;;23.20;41.67
29485;BME280;16440;59.494;17.978;2022-07-29T11:06:18;101977.00;;;23.28;40.95
29485;BME280;16440;59.494;17.978;2022-07-29T11:09:16;101961.78;;;23.54;42.14
29485;BME280;16440;59.494;17.978;2022-07-29T11:11:45;101971.50;;;23.44;39.74
29485;BME280;16440;59.494;17.978;2022-07-29T11:14:13;101956.47;;;23.51;42.87
29485;BME280;16440;59.494;17.978;2022-07-29T11:17:01;101957.34;;;23.83;40.06
29485;BME280;16440;59.494;17.978;2022-07-29T11:19:28;101956.16;;;24.18;41.18
29485;BME280;16440;59.494;17.978;2022-07-29T11:21:56;101961.28;;;24.38;40.23
29485;BME280;16440;59.494;17.978;2022-07-29T11:24:28;101964.41;;;24.03;39.67
29485;BME280;16440;59.494;17.978;2022-07-29T11:27:06;101958.34;;;23.66;39.36
29485;BME280;16440;59.494;17.978;2022-07-29T11:29:38;101957.41;;;23.19;41.54
29485;BME280;16440;59.494;17.978;2022-07-29T11:32:10;101958.53;;;23.15;40.97
29485;BME280;16440;59.494;17.978;2022-07-29T11:34:39;101950.25;;;23.32;41.14
29485;BME280;16440;59.494;17.978;2022-07-29T11:37:19;101951.22;;;23.62;40.39
29485;BME280;16440;59.494;17.978;2022-07-29T11:40:11;101960.34;;;23.78;39.97
29485;BME280;16440;59.494;17.978;2022-07-29T11:42:48;101951.87;;;23.51;39.92
29485;BME280;16440;59.494;17.978;2022-07-29T11:45:22;101958.28;;;23.35;40.59
29485;BME280;16440;59.494;17.978;2022-07-29T11:47:56;101960.38;;;23.47;40.91
29485;BME280;16440;59.494;17.978;2022-07-29T11:50:34;101952.66;;;23.69;40.14
29485;BME280;16440;59.494;17.978;2022-07-29T11:53:09;101952.31;;;23.75;38.97
29485;BME280;16440;59.494;17.978;2022-07-29T11:55:40;101960.00;;;23.69;40.24
29485;BME280;16440;59.494;17.978;2022-07-29T11:58:09;101961.53;;;23.74;37.20
29485;BME280;16440;59.494;17.978;2022-07-29T12:00:38;101958.13;;;23.38;36.58
29485;BME280;16440;59.494;17.978;2022-07-29T12:03:08;101959.16;;;23.20;39.24
29485;BME280;16440;59.494;17.978;2022-07-29T12:05:40;101945.25;;;23.38;37.63
29485;BME280;16440;59.494;17.978;2022-07-29T12:08:11;101940.16;;;23.48;37.93
29485;BME280;16440;59.494;17.978;2022-07-29T12:10:44;101938.37;;;23.78;38.01
29485;BME280;16440;59.494;17.978;2022-07-29T12:13:13;101936.69;;;24.06;36.11
29485;BME280;16440;59.494;17.978;2022-07-29T12:15:53;101945.56;;;24.26;36.52
29485;BME280;16440;59.494;17.978;2022-07-29T12:18:23;101955.91;;;24.37;35.15
29485;BME280;16440;59.494;17.978;2022-07-29T12:20:58;101934.91;;;24.05;37.37
29485;BME280;16440;59.494;17.978;2022-07-29T12:23:28;101942.09;;;23.77;36.10
29485;BME280;16440;59.494;17.978;2022-07-29T12:25:59;101940.97;;;23.66;36.07
29485;BME280;16440;59.494;17.978;2022-07-29T12:28:27;101938.03;;;23.69;36.67
29485;BME280;16440;59.494;17.978;2022-07-29T12:30:55;101940.84;;;23.67;37.02
29485;BME280;16440;59.494;17.978;2022-07-29T12:33:29;101936.44;;;23.80;37.32
29485;BME280;16440;59.494;17.978;2022-07-29T12:35:59;101922.91;;;23.91;37.04
29485;BME280;16440;59.494;17.978;2022-07-29T12:38:29;101929.00;;;23.96;37.91
29485;BME280;16440;59.494;17.978;2022-07-29T12:40:59;101929.16;;;24.09;37.26
29485;BME280;16440;59.494;17.978;2022-07-29T12:43:32;101928.19;;;24.40;37.81
29485;BME280;16440;59.494;17.978;2022-07-29T12:46:11;101928.69;;;24.47;36.73
29485;BME280;16440;59.494;17.978;2022-07-29T12:48:42;101935.91;;;24.33;37.37
29485;BME280;16440;59.494;17.978;2022-07-29T12:51:11;101934.56;;;24.40;36.40
29485;BME280;16440;59.494;17.978;2022-07-29T12:53:40;101931.87;;;24.25;35.98
29485;BME280;16440;59.494;17.978;2022-07-29T12:56:16;101929.97;;;23.95;37.54
29485;BME280;16440;59.494;17.978;2022-07-29T12:58:44;101928.19;;;23.80;37.45
29485;BME280;16440;59.494;17.978;2022-07-29T13:01:15;101918.37;;;23.90;36.74
29485;BME280;16440;59.494;17.978;2022-07-29T13:03:49;101925.78;;;23.74;36.94
29485;BME280;16440;59.494;17.978;2022-07-29T13:06:32;101928.37;;;23.46;37.65
29485;BME280;16440;59.494;17.978;2022-07-29T13:09:04;101919.56;;;23.24;37.87
29485;BME280;16440;59.494;17.978;2022-07-29T13:11:33;101918.16;;;23.17;38.21
29485;BME280;16440;59.494;17.978;2022-07-29T13:14:01;101921.16;;;23.12;38.37